createdAt,value
2022-08-16T00:03:07.066Z,73.06
2022-08-16T00:06:20.507Z,73.11
2022-08-16T00:09:27.174Z,73.10
2022-08-16T00:12:35.283Z,73.42
2022-08-16T00:15:51.121Z,73.84
2022-08-16T00:19:03.019Z,73.86
2022-08-16T00:22:13.743Z,74.07
2022-08-16T00:26:33.860Z,74.13
2022-08-16T00:28:54.527Z,74.35
2022-08-16T00:32:07.428Z,74.45
2022-08-16T00:35:19.105Z,74.38
2022-08-16T00:38:40.768Z,74.76
2022-08-16T00:41:49.889Z,74.85
2022-08-16T00:44:59.743Z,74.79
2022-08-16T00:48:28.767Z,74.76
2022-08-16T00:51:39.076Z,74.85
2022-08-16T00:54:45.347Z,75.10
2022-08-16T00:57:58.972Z,75.52
2022-08-16T01:01:08.842Z,75.78
2022-08-16T01:04:25.768Z,75.88
2022-08-16T01:07:51.374Z,75.95
2022-08-16T01:11:02.586Z,75.87
2022-08-16T01:14:13.637Z,76.00
2022-08-16T01:17:24.214Z,76.34
2022-08-16T01:20:35.759Z,76.51
2022-08-16T01:24:01.496Z,76.39
2022-08-16T01:27:14.982Z,76.64
2022-08-16T01:30:26.133Z,76.83
2022-08-16T01:33:35.878Z,76.66
2022-08-16T01:36:42.797Z,76.69
2022-08-16T01:39:53.070Z,76.92
2022-08-16T01:43:00.351Z,77.21
2022-08-16T01:46:37.956Z,77.30
2022-08-16T01:49:45.437Z,77.45
2022-08-16T01:53:10.046Z,77.70
2022-08-16T01:56:46.375Z,77.73
2022-08-16T01:59:57.102Z,77.63
2022-08-16T02:03:04.465Z,77.65
2022-08-16T02:06:11.337Z,77.96
2022-08-16T02:09:19.510Z,78.41
2022-08-16T02:12:45.839Z,78.59
2022-08-16T02:15:59.405Z,78.51
2022-08-16T02:19:15.825Z,78.55
2022-08-16T02:22:34.197Z,78.47
2022-08-16T02:25:52.407Z,78.75
2022-08-16T02:29:04.219Z,78.97
2022-08-16T02:32:50.148Z,79.11
2022-08-16T02:35:53.617Z,79.21
2022-08-16T02:39:06.395Z,79.39
2022-08-16T02:42:13.169Z,79.28
2022-08-16T02:45:27.680Z,79.23
2022-08-16T02:48:36.283Z,79.34
2022-08-16T02:51:47.052Z,79.39
2022-08-16T02:54:55.231Z,79.03
2022-08-16T02:58:03.065Z,78.97
2022-08-16T03:01:24.287Z,79.02
2022-08-16T03:04:51.158Z,79.05
2022-08-16T03:08:01.298Z,79.00
2022-08-16T03:11:17.881Z,79.40
2022-08-16T03:14:28.087Z,79.65
2022-08-16T03:17:53.222Z,79.72
2022-08-16T03:21:03.055Z,79.79
2022-08-16T03:24:29.127Z,79.91
2022-08-16T03:27:41.111Z,80.03
2022-08-16T03:30:53.066Z,79.94
2022-08-16T03:34:06.180Z,80.07
2022-08-16T03:37:13.199Z,80.06
2022-08-16T03:40:32.795Z,80.10
2022-08-16T03:43:50.982Z,80.30
2022-08-16T03:47:01.290Z,80.45
2022-08-16T03:50:26.037Z,80.87
2022-08-16T03:53:38.069Z,80.65
2022-08-16T03:56:56.853Z,80.73
2022-08-16T04:00:35.155Z,80.69
2022-08-16T04:03:45.016Z,80.94
2022-08-16T04:06:54.512Z,80.89
2022-08-16T04:10:35.520Z,80.92
2022-08-16T04:14:01.371Z,81.34
2022-08-16T04:17:01.693Z,81.63
2022-08-16T04:20:29.595Z,81.63
2022-08-16T04:23:45.439Z,81.60
2022-08-16T04:26:53.939Z,81.54
2022-08-16T04:30:03.813Z,81.77
2022-08-16T04:33:15.433Z,81.93
2022-08-16T04:36:23.613Z,81.72
2022-08-16T04:39:46.182Z,81.50
2022-08-16T04:42:55.822Z,81.59
2022-08-16T04:46:05.857Z,81.46
2022-08-16T04:49:43.735Z,81.38
2022-08-16T04:52:55.694Z,81.09
2022-08-16T04:56:11.586Z,80.66
2022-08-16T04:59:18.617Z,80.67
2022-08-16T05:02:41.577Z,80.56
2022-08-16T05:05:59.172Z,80.23
2022-08-16T05:09:12.674Z,80.12
2022-08-16T05:12:22.041Z,79.85
2022-08-16T05:15:38.111Z,79.87
2022-08-16T05:18:44.677Z,79.24
2022-08-16T05:21:55.542Z,79.09
2022-08-16T05:25:09.263Z,78.46
2022-08-16T05:28:30.948Z,78.61
2022-08-16T05:31:48.356Z,78.46
2022-08-16T05:35:00.812Z,77.42
2022-08-16T05:38:32.286Z,76.97
2022-08-16T05:41:45.464Z,76.52
2022-08-16T05:44:55.805Z,76.71
2022-08-16T05:48:07.418Z,75.99
2022-08-16T05:51:35.794Z,75.57
2022-08-16T05:54:58.731Z,75.77
2022-08-16T05:58:31.633Z,75.37
2022-08-16T06:01:42.117Z,74.98
2022-08-16T06:04:48.364Z,75.00
2022-08-16T06:07:58.273Z,74.63
2022-08-16T06:11:13.501Z,73.99
2022-08-16T06:14:23.529Z,73.71
2022-08-16T06:17:43.375Z,72.68
2022-08-16T06:21:03.271Z,72.00
2022-08-16T06:24:54.007Z,72.23
2022-08-16T06:27:40.926Z,71.71
2022-08-16T06:30:47.315Z,70.26
2022-08-16T06:33:59.288Z,69.90
2022-08-16T06:37:12.622Z,69.23
2022-08-16T06:40:33.281Z,68.86
2022-08-16T06:43:40.336Z,69.37
2022-08-16T06:46:53.785Z,67.78
2022-08-16T06:50:03.178Z,67.18
2022-08-16T06:53:24.557Z,67.18
2022-08-16T06:56:37.570Z,66.50
2022-08-16T06:59:53.075Z,66.46
2022-08-16T07:03:26.944Z,67.03
2022-08-16T07:06:38.348Z,66.02
2022-08-16T07:09:51.418Z,65.83
2022-08-16T07:13:03.389Z,66.60
2022-08-16T07:16:20.468Z,65.95
2022-08-16T07:20:01.803Z,65.53
2022-08-16T07:22:59.553Z,65.26
2022-08-16T07:26:25.406Z,64.30
2022-08-16T07:29:34.766Z,65.06
2022-08-16T07:32:42.406Z,65.60
2022-08-16T07:35:58.176Z,65.90
2022-08-16T07:39:10.034Z,65.47
2022-08-16T07:42:20.329Z,64.26
2022-08-16T07:45:34.331Z,64.16
2022-08-16T07:48:41.329Z,64.54
2022-08-16T07:51:56.288Z,64.12
2022-08-16T07:55:14.106Z,63.58
2022-08-16T07:58:34.236Z,62.62
2022-08-16T08:01:44.626Z,63.00
2022-08-16T08:04:51.857Z,62.78
2022-08-16T08:07:59.516Z,63.11
2022-08-16T08:11:13.395Z,62.81
2022-08-16T08:14:29.637Z,62.81
2022-08-16T08:17:42.841Z,61.88
2022-08-16T08:20:59.429Z,61.54
2022-08-16T08:24:15.558Z,62.34
2022-08-16T08:27:25.526Z,62.62
2022-08-16T08:31:00.583Z,61.30
2022-08-16T08:34:01.119Z,60.89
2022-08-16T08:37:12.130Z,60.19
2022-08-16T08:40:19.622Z,60.27
2022-08-16T08:43:41.637Z,59.49
2022-08-16T08:46:59.745Z,60.05
2022-08-16T08:50:11.169Z,60.75
2022-08-16T08:53:19.465Z,59.08
2022-08-16T08:56:45.918Z,59.50
2022-08-16T09:00:31.676Z,60.45
2022-08-16T09:03:57.433Z,60.44
2022-08-16T09:07:04.207Z,60.08
2022-08-16T09:10:20.751Z,59.61
2022-08-16T09:13:32.892Z,59.42
2022-08-16T09:17:01.494Z,58.46
2022-08-16T09:20:10.582Z,58.42
2022-08-16T09:23:22.361Z,58.79
2022-08-16T09:26:45.480Z,57.40
2022-08-16T09:30:00.281Z,56.37
2022-08-16T09:33:10.413Z,56.49
2022-08-16T09:36:31.820Z,56.83
2022-08-16T09:39:41.609Z,56.81
2022-08-16T09:42:58.695Z,56.84
2022-08-16T09:46:49.040Z,56.16
2022-08-16T09:49:37.602Z,56.23
2022-08-16T09:52:48.025Z,55.83
2022-08-16T09:55:58.647Z,55.70
2022-08-16T09:59:08.689Z,54.97
2022-08-16T10:02:26.302Z,53.88
2022-08-16T10:05:38.131Z,54.57
2022-08-16T10:09:04.324Z,54.00
2022-08-16T10:12:28.281Z,54.80
2022-08-16T10:15:35.834Z,54.02
2022-08-16T10:19:01.497Z,53.62
2022-08-16T10:22:15.383Z,53.57
2022-08-16T10:27:00.650Z,53.30
2022-08-16T10:28:50.932Z,53.48
2022-08-16T10:31:57.249Z,53.36
2022-08-16T10:35:06.503Z,52.78
2022-08-16T10:38:27.440Z,52.64
2022-08-16T10:41:34.941Z,53.05
2022-08-16T10:44:42.471Z,52.77
2022-08-16T10:48:02.633Z,52.35
2022-08-16T10:51:10.190Z,51.57
2022-08-16T10:54:28.706Z,51.98
2022-08-16T10:57:36.052Z,52.23
2022-08-16T11:00:46.146Z,50.97
2022-08-16T11:03:54.514Z,52.01
2022-08-16T11:07:08.656Z,51.02
2022-08-16T11:14:10.859Z,51.09
2022-08-16T11:17:17.528Z,50.48
2022-08-16T11:20:41.458Z,51.13
2022-08-16T11:23:58.290Z,49.62
2022-08-16T11:27:32.519Z,49.01
2022-08-16T11:30:38.973Z,48.99
2022-08-16T11:33:53.867Z,48.55
2022-08-16T11:37:02.914Z,46.76
2022-08-16T11:40:14.764Z,46.23
2022-08-16T11:43:33.849Z,46.84
2022-08-16T11:46:45.050Z,46.64
2022-08-16T11:49:53.369Z,47.50
2022-08-16T11:53:00.397Z,48.38
2022-08-16T11:56:09.361Z,48.24
2022-08-16T11:59:19.367Z,47.98
2022-08-16T12:02:33.027Z,47.03
2022-08-16T12:05:41.720Z,47.80
2022-08-16T12:08:50.805Z,46.03
2022-08-16T12:11:57.927Z,44.53
2022-08-16T12:15:07.656Z,45.82
2022-08-16T12:18:20.478Z,47.29
2022-08-16T12:21:26.818Z,47.23
2022-08-16T12:24:43.148Z,46.97
2022-08-16T12:27:50.305Z,47.33
2022-08-16T12:31:00.526Z,47.60
2022-08-16T12:34:08.111Z,48.23
2022-08-16T12:37:15.757Z,48.56
2022-08-16T12:40:32.903Z,48.84
2022-08-16T12:43:45.290Z,48.72
2022-08-16T12:47:06.157Z,48.25
2022-08-16T12:50:14.926Z,47.63
2022-08-16T12:53:22.104Z,47.46
2022-08-16T12:56:31.519Z,47.16
2022-08-16T12:59:38.588Z,47.98
2022-08-16T13:02:50.244Z,49.04
2022-08-16T13:05:56.754Z,48.64
2022-08-16T13:09:20.314Z,49.34
2022-08-16T13:12:28.548Z,49.29
2022-08-16T13:15:36.209Z,48.42
2022-08-16T13:19:00.562Z,49.71
2022-08-16T13:22:08.852Z,50.45
2022-08-16T13:25:28.736Z,50.71
2022-08-16T13:28:36.035Z,50.86
2022-08-16T13:31:42.953Z,50.60
2022-08-16T13:34:52.774Z,50.42
2022-08-16T13:37:58.965Z,50.67
2022-08-16T13:41:08.504Z,50.36
2022-08-16T13:44:15.570Z,50.40
2022-08-16T13:47:22.521Z,49.26
2022-08-16T13:50:51.357Z,49.86
2022-08-16T13:54:03.840Z,49.36
2022-08-16T13:57:11.586Z,48.56
2022-08-16T14:00:21.340Z,49.03
2022-08-16T14:03:28.926Z,48.64
2022-08-16T14:06:39.843Z,49.57
2022-08-16T14:09:47.017Z,49.40
2022-08-16T14:12:57.302Z,49.48
2022-08-16T14:16:03.456Z,50.02
2022-08-16T14:19:19.041Z,49.85
2022-08-16T14:22:35.632Z,48.90
2022-08-16T14:25:53.576Z,48.85
2022-08-16T14:29:03.511Z,48.09
2022-08-16T14:32:13.237Z,48.07
2022-08-16T14:35:50.232Z,47.39
2022-08-16T14:39:00.758Z,46.41
2022-08-16T14:42:10.813Z,47.24
2022-08-16T14:45:23.587Z,46.99
2022-08-16T14:48:29.975Z,47.51
2022-08-16T14:51:36.952Z,47.37
2022-08-16T14:54:48.392Z,47.28
2022-08-16T14:57:57.493Z,47.27
2022-08-16T15:01:04.860Z,46.54
2022-08-16T15:04:12.321Z,45.18
2022-08-16T15:07:50.690Z,45.64
2022-08-16T15:11:00.995Z,46.89
2022-08-16T15:14:08.028Z,46.95
2022-08-16T15:17:15.990Z,45.89
2022-08-16T15:20:26.248Z,47.23
2022-08-16T15:23:34.655Z,46.97
2022-08-16T15:26:47.111Z,46.92
2022-08-16T15:29:54.232Z,46.98
2022-08-16T15:33:06.452Z,46.02
2022-08-16T15:36:17.745Z,46.57
2022-08-16T15:39:31.805Z,44.62
2022-08-16T15:42:54.041Z,44.29
2022-08-16T15:46:35.613Z,43.71
2022-08-16T15:49:46.776Z,42.62
2022-08-16T15:53:00.389Z,42.73
2022-08-16T15:56:09.471Z,42.85
2022-08-16T15:59:20.653Z,42.27
2022-08-16T16:02:30.842Z,43.43
2022-08-16T16:05:37.605Z,43.79
2022-08-16T16:08:44.719Z,44.25
2022-08-16T16:11:52.043Z,44.25
2022-08-16T16:15:03.342Z,44.46
2022-08-16T16:18:10.912Z,44.71
2022-08-16T16:21:20.321Z,45.16
2022-08-16T16:24:31.383Z,43.91
2022-08-16T16:27:38.439Z,43.42
2022-08-16T16:30:48.070Z,43.52
2022-08-16T16:33:59.007Z,43.00
2022-08-16T16:37:05.269Z,41.63
2022-08-16T16:40:28.900Z,41.96
2022-08-16T16:43:40.489Z,42.36
2022-08-16T16:46:56.676Z,42.42
2022-08-16T16:50:06.705Z,43.16
2022-08-16T16:53:17.488Z,43.73
2022-08-16T16:56:31.105Z,43.85
2022-08-16T16:59:36.628Z,45.21
2022-08-16T17:02:49.609Z,46.32
2022-08-16T17:06:03.243Z,47.75
2022-08-16T17:09:16.047Z,48.16
2022-08-16T17:12:46.359Z,49.25
2022-08-16T17:15:52.168Z,50.24
2022-08-16T17:19:16.195Z,50.50
2022-08-16T17:22:32.940Z,51.30
2022-08-16T17:25:40.099Z,51.43
2022-08-16T17:28:59.413Z,51.83
2022-08-16T17:32:47.458Z,53.05
2022-08-16T17:35:45.820Z,53.60
2022-08-16T17:39:03.179Z,53.98
2022-08-16T17:42:16.075Z,54.70
2022-08-16T17:45:23.311Z,54.48
2022-08-16T17:48:31.299Z,56.62
2022-08-16T17:51:40.883Z,56.83
2022-08-16T17:54:47.001Z,57.74
2022-08-16T17:57:54.382Z,57.91
2022-08-16T18:01:03.399Z,57.88
2022-08-16T18:04:10.330Z,58.16
2022-08-16T18:07:19.091Z,58.57
2022-08-16T18:10:33.143Z,59.06
2022-08-16T18:13:43.416Z,59.15
2022-08-16T18:16:51.221Z,59.70
2022-08-16T18:19:57.592Z,59.83
2022-08-16T18:23:12.397Z,60.06
2022-08-16T18:26:20.941Z,59.64
2022-08-16T18:29:27.661Z,59.61
2022-08-16T18:32:42.746Z,59.98
2022-08-16T18:35:52.105Z,60.64
2022-08-16T18:39:06.165Z,60.39
2022-08-16T18:42:17.842Z,60.50
2022-08-16T18:45:24.047Z,60.26
2022-08-16T18:48:42.210Z,60.81
2022-08-16T18:51:49.362Z,60.90
2022-08-16T18:55:02.524Z,60.98
2022-08-16T18:58:19.835Z,62.00
2022-08-16T19:01:26.670Z,62.47
2022-08-16T19:04:55.075Z,62.62
2022-08-16T19:07:59.550Z,61.95
2022-08-16T19:11:14.051Z,63.20
2022-08-16T19:14:23.708Z,62.76
2022-08-16T19:17:29.690Z,63.58
2022-08-16T19:20:37.333Z,63.82
2022-08-16T19:23:44.628Z,64.54
2022-08-16T19:26:54.234Z,64.07
2022-08-16T19:30:03.606Z,64.69
2022-08-16T19:33:11.581Z,64.74
2022-08-16T19:36:32.171Z,64.73
2022-08-16T19:39:42.073Z,65.35
2022-08-16T19:42:51.314Z,65.01
2022-08-16T19:45:58.200Z,64.93
2022-08-16T19:49:04.632Z,65.54
2022-08-16T19:52:19.156Z,65.83
2022-08-16T19:55:25.078Z,65.53
2022-08-16T19:58:34.678Z,65.83
2022-08-16T20:01:42.634Z,66.28
2022-08-16T20:04:49.688Z,66.69
2022-08-16T20:07:56.728Z,66.54
2022-08-16T20:11:09.228Z,66.61
2022-08-16T20:14:25.786Z,66.62
2022-08-16T20:17:33.019Z,66.85
2022-08-16T20:20:40.731Z,67.27
2022-08-16T20:23:47.805Z,66.77
2022-08-16T20:26:54.147Z,67.48
2022-08-16T20:30:10.710Z,67.38
2022-08-16T20:33:18.060Z,67.90
2022-08-16T20:36:24.945Z,67.89
2022-08-16T20:39:30.921Z,67.87
2022-08-16T20:42:37.753Z,67.88
2022-08-16T20:45:49.109Z,68.04
2022-08-16T20:48:56.134Z,68.50
2022-08-16T20:52:03.382Z,68.04
2022-08-16T20:55:11.209Z,68.00
2022-08-16T20:58:17.277Z,68.81
2022-08-16T21:01:27.351Z,68.23
2022-08-16T21:04:52.177Z,69.12
2022-08-16T21:07:59.202Z,69.36
2022-08-16T21:11:07.763Z,69.38
2022-08-16T21:14:14.643Z,67.87
2022-08-16T21:17:23.917Z,68.64
2022-08-16T21:20:30.876Z,68.37
2022-08-16T21:23:37.182Z,68.40
2022-08-16T21:26:47.437Z,69.38
2022-08-16T21:30:03.609Z,69.94
2022-08-16T21:33:15.621Z,69.98
2022-08-16T21:36:35.067Z,70.27
2022-08-16T21:39:43.290Z,70.44
2022-08-16T21:42:49.371Z,70.33
2022-08-16T21:45:57.281Z,71.25
2022-08-16T21:49:06.970Z,71.20
2022-08-16T21:52:22.685Z,70.88
2022-08-16T21:55:33.493Z,71.33
2022-08-16T21:58:40.790Z,71.86
2022-08-16T22:01:49.815Z,71.79
2022-08-16T22:05:00.622Z,71.94
2022-08-16T22:08:08.583Z,71.95
2022-08-16T22:11:15.397Z,72.18
2022-08-16T22:14:21.590Z,72.76
2022-08-16T22:17:28.381Z,72.30
2022-08-16T22:20:38.555Z,72.92
2022-08-16T22:23:45.302Z,73.46
2022-08-16T22:27:00.985Z,73.86
2022-08-16T22:30:09.705Z,73.61
2022-08-16T22:33:19.259Z,72.87
2022-08-16T22:36:29.530Z,72.53
2022-08-16T22:39:35.874Z,72.93
2022-08-16T22:42:50.779Z,72.93
2022-08-16T22:45:57.411Z,73.04
2022-08-16T22:49:04.417Z,73.16
2022-08-16T22:52:13.576Z,73.30
2022-08-16T22:55:41.983Z,73.79
2022-08-16T22:58:48.763Z,73.90
2022-08-16T23:01:56.025Z,74.13
2022-08-16T23:05:03.233Z,74.35
2022-08-16T23:08:15.884Z,74.04
2022-08-16T23:11:38.379Z,74.70
2022-08-16T23:14:45.423Z,74.83
2022-08-16T23:17:52.284Z,75.15
2022-08-16T23:21:03.698Z,74.33
2022-08-16T23:24:13.338Z,74.84
2022-08-16T23:27:20.443Z,75.24
2022-08-16T23:30:28.048Z,75.08
2022-08-16T23:33:35.283Z,75.57
2022-08-16T23:36:41.234Z,75.66
2022-08-16T23:39:54.542Z,75.85
2022-08-16T23:43:06.698Z,75.93
2022-08-16T23:46:17.167Z,75.66
2022-08-16T23:49:58.906Z,76.23
2022-08-16T23:53:07.340Z,76.35
2022-08-16T23:56:17.744Z,76.72
2022-08-16T23:59:24.492Z,77.12
